Time;durP1;ratioP1;P1;durP2;ratioP2;P2;SDS_P1;SDS_P2;PMS_P1;PMS_P2;Temp;Humidity;BMP_temperature;BMP_pressure;BME280_temperature;BME280_humidity;BME280_pressure;Samples;Min_cycle;Max_cycle;Signal;HPM_P1;HPM_P2
2023/08/15 00:00:23;;;;;;;7.28;4.45;;;;;;;20.53;100.00;95859.03;5009720;28;24436;-77
2023/08/15 00:02:49;;;;;;;6.10;3.90;;;;;;;20.63;100.00;95853.66;5000240;28;24433;-77
2023/08/15 00:05:16;;;;;;;6.70;3.88;;;;;;;20.66;100.00;95842.81;4993438;28;24450;-76
2023/08/15 00:07:42;;;;;;;6.60;4.10;;;;;;;20.74;100.00;95844.69;4999182;28;24433;-75
2023/08/15 00:10:10;;;;;;;7.97;4.25;;;;;;;20.84;100.00;95847.16;5009638;28;24448;-75
2023/08/15 00:12:36;;;;;;;6.83;4.03;;;;;;;20.81;100.00;95844.88;5010035;28;24440;-75
2023/08/15 00:15:04;;;;;;;4.63;4.03;;;;;;;20.86;100.00;95839.94;5010019;28;24979;-76
2023/08/15 00:17:30;;;;;;;7.25;4.25;;;;;;;20.90;100.00;95838.66;4994296;28;24444;-77
2023/08/15 00:19:57;;;;;;;4.90;4.10;;;;;;;20.77;100.00;95833.84;5008226;28;24535;-77
2023/08/15 00:22:23;;;;;;;6.43;4.43;;;;;;;20.70;100.00;95831.00;5009911;28;24439;-76
2023/08/15 00:24:50;;;;;;;8.35;4.40;;;;;;;20.60;100.00;95832.91;5009696;28;24436;-77
2023/08/15 00:27:18;;;;;;;8.35;4.50;;;;;;;20.51;100.00;95829.44;5010032;28;24459;-76
2023/08/15 00:29:44;;;;;;;6.78;4.57;;;;;;;20.45;100.00;95818.66;4993086;28;24449;-76
2023/08/15 00:32:11;;;;;;;4.93;4.13;;;;;;;20.50;100.00;95827.75;4990619;28;24840;-77
2023/08/15 00:34:37;;;;;;;5.68;4.07;;;;;;;20.44;100.00;95823.09;4990832;28;24440;-75
2023/08/15 00:37:04;;;;;;;7.38;3.78;;;;;;;20.41;100.00;95828.66;4990314;28;24440;-76
2023/08/15 00:39:30;;;;;;;5.50;4.10;;;;;;;20.36;100.00;95825.69;5004458;28;24448;-76
2023/08/15 00:41:56;;;;;;;4.72;4.00;;;;;;;20.37;100.00;95829.97;5009681;28;24436;-76
2023/08/15 00:44:24;;;;;;;12.05;4.40;;;;;;;20.50;100.00;95817.22;5009871;28;24516;-76
2023/08/15 00:46:51;;;;;;;9.95;4.25;;;;;;;20.44;100.00;95817.84;5009680;28;24455;-77
2023/08/15 00:49:18;;;;;;;5.25;3.85;;;;;;;20.28;100.00;95815.09;4995961;28;24468;-76
2023/08/15 00:51:46;;;;;;;5.33;4.40;;;;;;;20.26;100.00;95817.06;4990113;28;24437;-76
2023/08/15 00:54:13;;;;;;;5.50;3.90;;;;;;;20.21;100.00;95820.19;4975342;28;24433;-76
2023/08/15 00:56:40;;;;;;;7.15;4.82;;;;;;;20.10;100.00;95814.31;4997439;28;24433;-76
2023/08/15 00:59:07;;;;;;;5.25;4.43;;;;;;;19.98;100.00;95808.50;5008364;28;24447;-76
2023/08/15 01:01:36;;;;;;;6.30;4.43;;;;;;;19.85;100.00;95810.72;5012118;28;24444;-76
2023/08/15 01:04:03;;;;;;;5.70;4.15;;;;;;;19.91;100.00;95810.94;5012947;28;24464;-76
2023/08/15 01:06:30;;;;;;;10.17;4.30;;;;;;;20.05;100.00;95817.41;5007991;28;24460;-76
2023/08/15 01:08:56;;;;;;;10.10;4.25;;;;;;;20.15;100.00;95819.97;5003611;28;24437;-76
2023/08/15 01:11:24;;;;;;;7.72;4.30;;;;;;;20.19;100.00;95816.88;4993468;28;24440;-76
2023/08/15 01:13:59;;;;;;;6.43;3.97;;;;;;;20.23;100.00;95812.94;4993677;28;24445;-76
2023/08/15 01:16:29;;;;;;;5.25;4.00;;;;;;;20.29;100.00;95814.13;4993553;28;24512;-75
2023/08/15 01:19:02;;;;;;;8.37;4.23;;;;;;;20.29;100.00;95816.78;4994487;28;24876;-76
2023/08/15 01:21:33;;;;;;;5.63;3.80;;;;;;;20.27;100.00;95818.72;4993208;28;24437;-76
2023/08/15 01:24:02;;;;;;;4.68;3.70;;;;;;;20.28;100.00;95817.72;4993356;28;24440;-76
2023/08/15 01:26:28;;;;;;;6.63;3.75;;;;;;;20.31;100.00;95817.44;4993131;28;24452;-76
2023/08/15 01:28:55;;;;;;;5.18;3.97;;;;;;;20.32;100.00;95816.47;5002062;28;24432;-76
2023/08/15 01:31:31;;;;;;;8.77;3.83;;;;;;;20.24;100.00;95819.03;5012151;28;24436;-76
2023/08/15 01:34:07;;;;;;;6.07;4.15;;;;;;;20.15;100.00;95817.34;4995400;28;24876;-76
2023/08/15 01:36:53;;;;;;;9.27;4.25;;;;;;;20.04;100.00;95811.34;4998533;28;24432;-76
2023/08/15 01:39:28;;;;;;;6.07;4.07;;;;;;;19.96;100.00;95810.47;5000285;28;24991;-77
2023/08/15 01:41:57;;;;;;;6.53;4.07;;;;;;;19.83;100.00;95805.59;4992789;28;24529;-76
2023/08/15 01:44:26;;;;;;;14.20;5.00;;;;;;;19.64;100.00;95795.25;4993078;28;24483;-76
2023/08/15 01:46:52;;;;;;;8.75;3.88;;;;;;;19.75;100.00;95802.91;5001350;28;24503;-76
2023/08/15 01:49:19;;;;;;;5.17;3.43;;;;;;;19.85;100.00;95801.03;5000322;28;24461;-76
2023/08/15 01:51:45;;;;;;;9.95;4.07;;;;;;;19.93;100.00;95806.31;4993589;28;24435;-75
2023/08/15 01:54:12;;;;;;;5.90;3.90;;;;;;;19.93;100.00;95801.06;4992784;28;24447;-76
2023/08/15 01:56:39;;;;;;;6.60;4.00;;;;;;;19.90;100.00;95795.28;4993142;28;24444;-76
2023/08/15 01:59:06;;;;;;;4.78;3.53;;;;;;;19.95;100.00;95798.28;5002514;28;24495;-76
2023/08/15 02:01:32;;;;;;;9.30;3.90;;;;;;;19.98;100.00;95801.44;5010573;28;24436;-76
2023/08/15 02:03:59;;;;;;;7.80;4.18;;;;;;;20.02;100.00;95805.44;5011598;28;24436;-76
2023/08/15 02:06:25;;;;;;;6.63;3.83;;;;;;;20.05;100.00;95797.22;4992866;28;25012;-77
2023/08/15 02:08:52;;;;;;;7.07;4.20;;;;;;;20.06;100.00;95800.69;4999910;28;24436;-76
2023/08/15 02:11:18;;;;;;;8.70;3.90;;;;;;;19.99;100.00;95810.97;5012186;28;24408;-76
2023/08/15 02:13:46;;;;;;;12.67;4.57;;;;;;;19.97;100.00;95805.03;5011742;28;25013;-76
2023/08/15 02:16:12;;;;;;;6.85;4.30;;;;;;;19.93;100.00;95803.69;5011403;28;24463;-76
2023/08/15 02:18:39;;;;;;;6.55;3.80;;;;;;;19.99;100.00;95800.47;5005992;28;24437;-76
2023/08/15 02:21:05;;;;;;;6.63;4.00;;;;;;;20.02;100.00;95800.16;4993254;28;24441;-76
2023/08/15 02:23:31;;;;;;;8.60;4.18;;;;;;;20.07;100.00;95794.44;4992335;28;24428;-76
2023/08/15 02:25:58;;;;;;;9.00;4.28;;;;;;;20.13;100.00;95793.81;4992390;28;24456;-75
2023/08/15 02:28:24;;;;;;;10.68;4.05;;;;;;;20.09;100.00;95795.09;4995653;28;24440;-76
2023/08/15 02:30:54;;;;;;;4.75;3.92;;;;;;;20.06;100.00;95801.50;5011436;28;24448;-76
2023/08/15 02:33:20;;;;;;;6.25;3.88;;;;;;;20.10;100.00;95804.66;5011438;28;24451;-75
2023/08/15 02:35:47;;;;;;;7.90;4.03;;;;;;;20.11;100.00;95808.94;5011149;28;24442;-76
2023/08/15 02:38:13;;;;;;;5.43;4.35;;;;;;;20.15;100.00;95804.19;4995796;28;24441;-76
2023/08/15 02:40:41;;;;;;;6.60;3.90;;;;;;;20.17;100.00;95804.84;5011184;28;24447;-76
2023/08/15 02:43:08;;;;;;;4.57;3.77;;;;;;;20.11;100.00;95811.56;5011162;28;24448;-76
2023/08/15 02:45:34;;;;;;;8.50;3.67;;;;;;;20.04;100.00;95813.16;5010990;28;24991;-75
2023/08/15 02:48:02;;;;;;;5.70;3.58;;;;;;;19.99;100.00;95810.97;4995329;28;24446;-76
2023/08/15 02:50:29;;;;;;;7.45;4.82;;;;;;;19.88;100.00;95813.84;5006577;28;24444;-76
2023/08/15 02:52:55;;;;;;;4.22;3.65;;;;;;;19.89;100.00;95807.63;5011521;28;24440;-77
2023/08/15 02:55:22;;;;;;;7.40;4.28;;;;;;;19.90;100.00;95797.91;5011257;28;24847;-76
2023/08/15 02:57:48;;;;;;;9.20;4.47;;;;;;;19.96;100.00;95803.41;5010712;28;24436;-76
2023/08/15 03:00:15;;;;;;;8.48;4.07;;;;;;;19.97;100.00;95798.97;4998069;28;24444;-76
2023/08/15 03:02:41;;;;;;;6.18;4.30;;;;;;;20.00;100.00;95796.84;5006548;28;24501;-75
2023/08/15 03:05:09;;;;;;;5.87;4.43;;;;;;;20.03;100.00;95801.81;4991387;28;24444;-76
2023/08/15 03:07:36;;;;;;;6.50;4.57;;;;;;;20.08;100.00;95796.09;4991849;28;24452;-76
2023/08/15 03:10:03;;;;;;;5.78;4.13;;;;;;;20.05;100.00;95796.38;4994341;28;24445;-76
2023/08/15 03:12:29;;;;;;;5.90;4.13;;;;;;;19.96;100.00;95792.88;5010497;28;24804;-74
2023/08/15 03:14:56;;;;;;;5.45;3.83;;;;;;;20.04;100.00;95794.75;4986718;28;24507;-76
2023/08/15 03:17:23;;;;;;;6.43;3.80;;;;;;;19.90;100.00;95792.66;4989236;28;24436;-76
2023/08/15 03:19:49;;;;;;;8.77;4.13;;;;;;;19.83;100.00;95795.06;4992148;28;24444;-76
2023/08/15 03:22:17;;;;;;;5.95;3.60;;;;;;;19.86;100.00;95791.31;5002158;28;24448;-74
2023/08/15 03:24:43;;;;;;;5.32;3.90;;;;;;;19.79;100.00;95777.97;4975419;28;24444;-76
2023/08/15 03:27:10;;;;;;;7.40;4.00;;;;;;;19.76;100.00;95788.78;4991060;28;24449;-75
2023/08/15 03:29:36;;;;;;;8.93;4.30;;;;;;;19.76;100.00;95791.41;4990866;28;24444;-76
2023/08/15 03:32:03;;;;;;;5.67;4.60;;;;;;;19.60;100.00;95805.22;4985009;28;24437;-76
2023/08/15 03:34:29;;;;;;;6.70;4.53;;;;;;;19.56;100.00;95801.25;4998972;28;24483;-76
2023/08/15 03:36:57;;;;;;;8.60;4.55;;;;;;;19.62;100.00;95789.31;5010054;28;24800;-74
2023/08/15 03:39:24;;;;;;;12.15;4.35;;;;;;;19.75;100.00;95795.00;5010279;28;24812;-76
2023/08/15 03:41:51;;;;;;;5.18;4.25;;;;;;;19.75;100.00;95795.00;4993083;28;24441;-76
2023/08/15 03:44:17;;;;;;;4.22;3.83;;;;;;;19.69;100.00;95799.09;4991273;28;24436;-76
2023/08/15 03:46:45;;;;;;;11.50;4.03;;;;;;;19.66;100.00;95801.19;4990602;28;24897;-76
2023/08/15 03:49:18;;;;;;;5.35;4.07;;;;;;;19.65;100.00;95796.91;4979595;28;24984;-75
2023/08/15 03:51:44;;;;;;;9.75;3.97;;;;;;;19.65;100.00;95802.97;5005680;28;24836;-75
2023/08/15 03:54:10;;;;;;;6.22;3.97;;;;;;;19.66;100.00;95802.03;4995034;28;24444;-75
2023/08/15 03:56:38;;;;;;;6.28;4.47;;;;;;;19.47;100.00;95802.97;4993054;28;24439;-75
2023/08/15 03:59:05;;;;;;;6.80;5.13;;;;;;;19.30;100.00;95803.78;5010113;28;24447;-75
2023/08/15 04:01:32;;;;;;;14.70;5.03;;;;;;;19.08;100.00;95810.28;4990293;28;24983;-75
2023/08/15 04:03:59;;;;;;;7.50;5.18;;;;;;;19.06;100.00;95810.44;4991338;28;24436;-75
2023/08/15 04:06:25;;;;;;;7.05;4.28;;;;;;;19.27;100.00;95809.31;4991381;28;24453;-75
2023/08/15 04:08:51;;;;;;;6.77;4.30;;;;;;;19.35;100.00;95819.91;5010208;28;24437;-75
2023/08/15 04:11:19;;;;;;;5.13;3.53;;;;;;;19.24;100.00;95825.38;4997965;28;24437;-75
2023/08/15 04:13:47;;;;;;;6.82;3.70;;;;;;;19.21;100.00;95836.19;4990544;28;24437;-75
2023/08/15 04:16:13;;;;;;;8.43;3.77;;;;;;;19.20;100.00;95839.78;4990767;28;24441;-75
2023/08/15 04:18:39;;;;;;;5.22;3.63;;;;;;;19.14;100.00;95841.22;4990888;28;24441;-75
2023/08/15 04:21:06;;;;;;;5.32;3.90;;;;;;;19.16;100.00;95835.78;5000455;28;24444;-75
2023/08/15 04:23:32;;;;;;;5.03;3.70;;;;;;;19.17;100.00;95842.69;5009444;28;24439;-75
2023/08/15 04:25:59;;;;;;;6.95;3.90;;;;;;;19.37;100.00;95844.22;5009730;28;24444;-75
2023/08/15 04:28:25;;;;;;;8.10;3.73;;;;;;;19.20;100.00;95848.47;5005968;28;20787;-75
2023/08/15 04:30:53;;;;;;;6.47;4.15;;;;;;;19.20;100.00;95845.84;4998359;28;24486;-75
2023/08/15 04:33:20;;;;;;;6.63;4.20;;;;;;;19.24;100.00;95839.31;5010286;28;24439;-75
2023/08/15 04:35:46;;;;;;;6.15;4.50;;;;;;;19.18;100.00;95844.38;4996894;28;24443;-75
2023/08/15 04:38:14;;;;;;;7.90;4.97;;;;;;;19.24;100.00;95852.44;4996768;28;24433;-75
2023/08/15 04:40:40;;;;;;;6.97;4.73;;;;;;;19.23;100.00;95858.69;5013611;28;24831;-75
2023/08/15 04:43:08;;;;;;;8.73;4.90;;;;;;;19.31;100.00;95855.31;5013723;28;24460;-75
2023/08/15 04:45:40;;;;;;;9.43;4.72;;;;;;;19.20;100.00;95858.97;5000810;28;24444;-75
2023/08/15 04:48:08;;;;;;;9.02;4.70;;;;;;;19.10;100.00;95869.56;5010642;28;24455;-75
2023/08/15 04:50:35;;;;;;;7.53;4.60;;;;;;;19.07;100.00;95869.00;4993833;28;24441;-75
2023/08/15 04:53:01;;;;;;;6.93;4.60;;;;;;;19.19;100.00;95869.63;4992745;28;24806;-73
2023/08/15 04:55:28;;;;;;;9.18;4.75;;;;;;;19.25;100.00;95876.94;5005774;28;24440;-75
2023/08/15 04:57:54;;;;;;;5.10;3.88;;;;;;;19.34;100.00;95876.84;4998090;28;24444;-78
2023/08/15 05:00:21;;;;;;;5.75;3.78;;;;;;;19.62;100.00;95878.63;4993014;28;24981;-75
2023/08/15 05:02:47;;;;;;;6.67;4.10;;;;;;;19.67;100.00;95879.84;4994878;28;24984;-75
2023/08/15 05:05:16;;;;;;;5.03;3.80;;;;;;;19.74;100.00;95878.28;5003282;28;24440;-75
2023/08/15 05:07:42;;;;;;;9.85;4.57;;;;;;;19.63;100.00;95885.56;5012963;28;24460;-75
2023/08/15 05:10:09;;;;;;;6.82;4.18;;;;;;;19.64;100.00;95881.97;5011530;28;24436;-75
2023/08/15 05:12:35;;;;;;;10.32;4.60;;;;;;;19.64;100.00;95885.41;5008342;28;24444;-75
2023/08/15 05:15:02;;;;;;;6.03;4.65;;;;;;;19.62;100.00;95887.38;4993041;28;24448;-74
2023/08/15 05:17:28;;;;;;;6.80;4.18;;;;;;;19.72;100.00;95897.78;4993714;28;24463;-75
2023/08/15 05:19:55;;;;;;;5.13;4.40;;;;;;;19.68;100.00;95893.81;4993201;28;24851;-75
2023/08/15 05:22:22;;;;;;;5.70;4.10;;;;;;;19.71;100.00;95896.97;4994997;28;24987;-75
2023/08/15 05:24:49;;;;;;;6.53;4.60;;;;;;;19.76;100.00;95888.63;5012466;28;24432;-75
2023/08/15 05:27:15;;;;;;;7.78;4.50;;;;;;;19.85;100.00;95890.38;5012430;28;24816;-75
2023/08/15 05:29:43;;;;;;;7.32;5.05;;;;;;;19.74;100.00;95901.94;5008317;28;25019;-75
2023/08/15 05:32:10;;;;;;;6.07;4.63;;;;;;;19.73;100.00;95891.59;5012106;28;24544;-75
2023/08/15 05:34:36;;;;;;;6.50;3.80;;;;;;;19.76;100.00;95894.75;5007602;28;24440;-75
2023/08/15 05:37:03;;;;;;;6.47;4.32;;;;;;;19.70;100.00;95905.03;4993549;28;24449;-75
2023/08/15 05:39:30;;;;;;;6.97;4.23;;;;;;;19.72;100.00;95906.50;5004934;28;24991;-75
2023/08/15 05:41:57;;;;;;;5.47;4.35;;;;;;;19.71;100.00;95909.28;4993973;28;25019;-74
2023/08/15 05:44:23;;;;;;;13.50;4.68;;;;;;;19.70;100.00;95913.72;4995235;28;24987;-75
2023/08/15 05:46:50;;;;;;;5.97;4.40;;;;;;;19.74;100.00;95901.94;5011489;28;24908;-75
2023/08/15 05:49:16;;;;;;;8.32;4.40;;;;;;;19.81;100.00;95904.78;4999034;28;24448;-74
2023/08/15 05:51:43;;;;;;;10.15;4.57;;;;;;;19.82;100.00;95907.25;5005189;28;24436;-71
2023/08/15 05:54:09;;;;;;;6.55;4.15;;;;;;;20.05;100.00;95901.56;5010641;28;25058;-74
2023/08/15 05:56:37;;;;;;;9.52;4.53;;;;;;;20.22;100.00;95915.66;4995394;28;24443;-74
2023/08/15 05:59:04;;;;;;;9.30;4.53;;;;;;;20.20;100.00;95921.06;5011543;28;24436;-74
2023/08/15 06:01:30;;;;;;;6.47;4.35;;;;;;;20.19;100.00;95924.69;5001468;28;24444;-74
2023/08/15 06:03:57;;;;;;;7.85;4.57;;;;;;;20.16;100.00;95921.53;4992286;28;24437;-76
2023/08/15 06:06:23;;;;;;;7.60;4.95;;;;;;;20.56;100.00;95915.78;5006605;28;24441;-75
2023/08/15 06:08:50;;;;;;;8.77;5.15;;;;;;;20.76;100.00;95921.66;4994878;28;24456;-75
2023/08/15 06:11:16;;;;;;;6.32;4.63;;;;;;;20.77;100.00;95918.88;4992622;28;24445;-76
2023/08/15 06:13:44;;;;;;;7.72;4.28;;;;;;;21.01;100.00;95915.53;5002045;28;24428;-76
2023/08/15 06:16:10;;;;;;;7.85;4.90;;;;;;;20.95;100.00;95916.19;4998168;28;24448;-75
2023/08/15 06:18:37;;;;;;;6.43;4.75;;;;;;;21.02;100.00;95917.22;4995051;28;24429;-75
2023/08/15 06:21:03;;;;;;;6.20;4.78;;;;;;;21.27;100.00;95922.56;5010725;28;24972;-75
2023/08/15 06:23:30;;;;;;;7.97;4.97;;;;;;;21.37;100.00;95939.13;5001321;28;24452;-75
2023/08/15 06:25:56;;;;;;;5.18;4.55;;;;;;;21.48;100.00;95936.19;4992237;28;24442;-75
2023/08/15 06:28:23;;;;;;;6.90;4.72;;;;;;;21.46;100.00;95947.88;4991936;28;25003;-75
2023/08/15 06:30:50;;;;;;;6.35;4.10;;;;;;;21.50;100.00;95951.84;4991819;28;24460;-75
2023/08/15 06:33:17;;;;;;;8.18;4.63;;;;;;;21.46;100.00;95953.97;5007380;28;24797;-75
2023/08/15 06:35:43;;;;;;;5.00;4.35;;;;;;;21.39;100.00;95941.56;4998623;28;24444;-75
2023/08/15 06:38:10;;;;;;;5.75;4.47;;;;;;;21.20;100.00;95953.97;5000344;28;24505;-75
2023/08/15 06:40:36;;;;;;;6.07;4.57;;;;;;;21.36;100.00;95952.44;4994696;28;25000;-76
2023/08/15 06:43:03;;;;;;;7.80;5.07;;;;;;;21.30;100.00;95948.59;4989863;28;24634;-75
2023/08/15 06:45:30;;;;;;;7.45;4.70;;;;;;;21.25;100.00;95956.16;4996465;28;24443;-77
2023/08/15 06:47:57;;;;;;;7.97;4.90;;;;;;;21.27;100.00;95962.09;5011936;28;24444;-76
2023/08/15 06:50:24;;;;;;;8.60;4.90;;;;;;;21.38;100.00;95969.75;5011008;28;24435;-76
2023/08/15 06:52:50;;;;;;;5.88;4.20;;;;;;;21.43;100.00;95972.75;5011696;28;24428;-76
2023/08/15 06:55:17;;;;;;;6.47;4.15;;;;;;;21.37;100.00;95967.28;4997450;28;24448;-76
2023/08/15 06:57:43;;;;;;;8.00;4.80;;;;;;;21.28;100.00;95963.72;4992908;28;24428;-76
2023/08/15 07:00:11;;;;;;;5.85;4.28;;;;;;;21.32;100.00;95966.88;5011076;28;24439;-76
2023/08/15 07:02:39;;;;;;;6.88;4.35;;;;;;;21.32;100.00;95982.69;5002316;28;24448;-77
2023/08/15 07:05:08;;;;;;;6.15;4.88;;;;;;;21.31;100.00;95984.50;4991903;28;24499;-76
2023/08/15 07:07:35;;;;;;;7.50;4.25;;;;;;;21.38;100.00;95982.91;4991549;28;24988;-76
2023/08/15 07:10:01;;;;;;;7.57;4.80;;;;;;;21.35;100.00;95988.50;4991481;28;24722;-76
2023/08/15 07:12:28;;;;;;;5.85;4.53;;;;;;;21.38;100.00;95990.81;4991686;28;24417;-77
2023/08/15 07:14:54;;;;;;;6.28;4.55;;;;;;;21.25;100.00;95983.34;4991797;28;24816;-76
2023/08/15 07:17:20;;;;;;;6.78;4.30;;;;;;;21.27;100.00;95983.97;4991786;28;24444;-76
2023/08/15 07:19:47;;;;;;;9.70;4.45;;;;;;;21.38;100.00;95990.81;4991385;28;24432;-76
2023/08/15 07:22:15;;;;;;;6.03;4.05;;;;;;;21.48;100.00;95988.06;4995748;28;24441;-76
2023/08/15 07:24:41;;;;;;;8.23;4.20;;;;;;;21.51;100.00;95987.75;5011025;28;24424;-76
2023/08/15 07:27:08;;;;;;;7.60;4.45;;;;;;;21.51;100.00;95974.59;5010890;28;24428;-76
2023/08/15 07:29:34;;;;;;;12.95;5.25;;;;;;;21.54;100.00;95983.97;5010849;28;24416;-76
2023/08/15 07:32:01;;;;;;;10.38;5.13;;;;;;;21.50;100.00;95984.28;4998188;28;24861;-76
2023/08/15 07:34:27;;;;;;;8.50;5.15;;;;;;;21.43;100.00;95977.16;5011036;28;24431;-76
2023/08/15 07:36:54;;;;;;;8.25;5.53;;;;;;;21.52;100.00;95983.31;4992233;28;24437;-76
2023/08/15 07:39:21;;;;;;;10.02;5.35;;;;;;;21.60;100.00;95978.88;5005428;28;24447;-76
2023/08/15 07:41:48;;;;;;;8.57;5.30;;;;;;;21.70;100.00;95973.50;4992196;28;24436;-76
2023/08/15 07:44:14;;;;;;;8.43;5.47;;;;;;;21.64;100.00;95988.13;4991128;28;24433;-76
2023/08/15 07:46:40;;;;;;;6.75;5.10;;;;;;;21.76;100.00;95988.66;4991407;28;24425;-76
2023/08/15 07:49:06;;;;;;;11.90;5.77;;;;;;;21.77;100.00;95998.25;4990759;28;25044;-76
2023/08/15 07:51:33;;;;;;;6.82;5.15;;;;;;;21.89;100.00;95982.94;4990842;28;25036;-76
2023/08/15 07:53:59;;;;;;;9.65;5.28;;;;;;;22.14;100.00;95974.13;4990926;28;24813;-76
2023/08/15 07:56:29;;;;;;;7.85;5.70;;;;;;;22.37;100.00;95963.75;4991032;28;24421;-78
2023/08/15 07:58:55;;;;;;;10.17;5.27;;;;;;;22.46;100.00;95967.19;4991343;28;24421;-76
2023/08/15 08:01:22;;;;;;;10.32;5.50;;;;;;;22.76;100.00;95970.16;4990673;28;24794;-75
2023/08/15 08:03:48;;;;;;;10.27;5.57;;;;;;;23.03;100.00;95975.13;4991440;28;24515;-76
2023/08/15 08:06:15;;;;;;;8.23;5.30;;;;;;;23.08;100.00;95969.31;4990699;28;24468;-76
2023/08/15 08:08:41;;;;;;;16.08;5.30;;;;;;;23.13;100.00;95970.44;4990938;28;24452;-77
2023/08/15 08:11:08;;;;;;;7.23;4.93;;;;;;;22.98;100.00;95977.41;4994429;28;24513;-75
2023/08/15 08:13:36;;;;;;;8.95;4.90;;;;;;;23.07;100.00;95980.88;4995327;28;24971;-76
2023/08/15 08:16:02;;;;;;;7.80;4.72;;;;;;;22.81;100.00;95978.41;4994505;28;24995;-76
2023/08/15 08:18:29;;;;;;;9.13;5.60;;;;;;;22.79;100.00;95990.94;5001097;28;24432;-76
2023/08/15 08:20:55;;;;;;;8.13;4.60;;;;;;;22.93;100.00;95985.84;5003656;28;24444;-75
2023/08/15 08:23:23;;;;;;;9.40;5.70;;;;;;;22.91;100.00;95982.53;5008365;28;24587;-77
2023/08/15 08:25:50;;;;;;;11.27;5.25;;;;;;;22.94;100.00;95991.94;5013407;28;24801;-76
2023/08/15 08:28:16;;;;;;;8.32;5.20;;;;;;;22.95;100.00;95990.94;5013766;28;24548;-75
2023/08/15 08:30:44;;;;;;;6.32;5.03;;;;;;;23.13;100.00;95986.28;5005784;28;24440;-76
2023/08/15 08:33:13;;;;;;;5.60;4.90;;;;;;;23.38;100.00;95979.13;4994428;28;24495;-75
2023/08/15 08:35:39;;;;;;;8.70;5.30;;;;;;;23.44;100.00;95982.94;4994717;28;24761;-75
2023/08/15 08:38:05;;;;;;;7.57;5.50;;;;;;;23.49;100.00;95972.66;4994460;28;24527;-75
2023/08/15 08:40:32;;;;;;;6.43;4.03;;;;;;;23.56;100.00;95980.72;4994123;28;24436;-75
2023/08/15 08:42:59;;;;;;;5.50;3.80;;;;;;;23.64;100.00;95984.16;4994492;28;24432;-75
2023/08/15 08:45:30;;;;;;;10.17;3.80;;;;;;;23.73;100.00;95981.50;4994461;28;24531;-76
2023/08/15 08:47:59;;;;;;;5.18;3.90;;;;;;;23.73;100.00;95992.91;4994652;28;24439;-76
2023/08/15 08:50:27;;;;;;;6.82;3.95;;;;;;;23.68;100.00;95992.59;4994153;28;24413;-75
2023/08/15 08:52:54;;;;;;;6.90;3.90;;;;;;;23.76;100.00;95989.09;4994095;28;24429;-75
2023/08/15 08:55:21;;;;;;;15.95;3.85;;;;;;;23.91;100.00;95987.34;4994241;28;24428;-76
2023/08/15 08:57:51;;;;;;;5.47;3.53;;;;;;;23.79;100.00;95999.31;4994354;28;24540;-76
2023/08/15 09:00:22;;;;;;;6.15;3.58;;;;;;;23.83;100.00;96009.38;4994082;28;24425;-75
2023/08/15 09:02:48;;;;;;;8.88;4.40;;;;;;;23.79;100.00;96007.25;4994120;28;24424;-76
2023/08/15 09:05:17;;;;;;;6.72;4.00;;;;;;;23.68;100.00;95995.25;4994259;28;24480;-75
2023/08/15 09:07:43;;;;;;;6.47;3.70;;;;;;;23.71;100.00;96007.31;4994030;28;25081;-76
2023/08/15 09:10:10;;;;;;;7.40;3.70;;;;;;;23.72;100.00;96003.66;4993655;28;24440;-76
2023/08/15 09:12:38;;;;;;;6.70;3.90;;;;;;;23.72;100.00;96001.81;4994126;28;24493;-76
2023/08/15 09:15:06;;;;;;;12.15;4.28;;;;;;;23.80;100.00;96012.38;4993654;28;24785;-75
2023/08/15 09:17:33;;;;;;;6.72;3.67;;;;;;;23.91;100.00;96000.56;4993833;28;24519;-75
2023/08/15 09:20:09;;;;;;;9.50;3.85;;;;;;;24.28;100.00;96005.16;4993525;28;24431;-76
2023/08/15 09:22:38;;;;;;;9.00;4.30;;;;;;;24.55;100.00;96005.69;4992914;28;24479;-76
2023/08/15 09:25:05;;;;;;;9.20;4.03;;;;;;;24.49;100.00;96001.09;4993585;28;24421;-75
2023/08/15 09:27:31;;;;;;;8.18;3.63;;;;;;;24.80;100.00;96006.28;4993681;28;24467;-76
2023/08/15 09:29:58;;;;;;;9.00;3.30;;;;;;;25.08;100.00;95995.94;4993467;28;24460;-76
2023/08/15 09:32:24;;;;;;;7.82;3.58;;;;;;;25.01;100.00;95992.34;4993425;28;24413;-75
2023/08/15 09:34:50;;;;;;;7.75;3.63;;;;;;;25.08;100.00;95995.94;4993748;28;24417;-76
2023/08/15 09:37:20;;;;;;;9.02;3.45;;;;;;;25.06;100.00;95996.09;4993686;28;24417;-76
2023/08/15 09:39:48;;;;;;;4.85;2.88;;;;;;;25.07;100.00;95997.75;4993650;28;24422;-76
2023/08/15 09:42:15;;;;;;;6.78;3.38;;;;;;;25.17;100.00;95999.34;4993113;28;24968;-75
2023/08/15 09:44:41;;;;;;;6.70;3.40;;;;;;;25.23;100.00;96004.75;4993555;28;24418;-75
2023/08/15 09:47:09;;;;;;;5.63;3.00;;;;;;;25.22;100.00;96005.75;4993418;28;24528;-77
2023/08/15 09:49:35;;;;;;;5.85;3.00;;;;;;;25.16;100.00;96009.13;4993612;28;24464;-75
2023/08/15 09:52:04;;;;;;;7.07;3.13;;;;;;;25.12;100.00;96009.69;4993374;28;24432;-76
2023/08/15 09:54:31;;;;;;;5.97;3.08;;;;;;;25.08;100.00;96012.66;4993512;28;24428;-75
2023/08/15 09:56:59;;;;;;;5.82;2.80;;;;;;;24.95;100.00;96011.63;4993011;28;24441;-75
2023/08/15 09:59:25;;;;;;;6.05;2.97;;;;;;;24.90;100.00;96014.81;4992830;28;24459;-76
2023/08/15 10:01:54;;;;;;;8.45;2.75;;;;;;;24.89;100.00;96022.94;4992711;28;24425;-75
2023/08/15 10:04:23;;;;;;;5.93;2.95;;;;;;;24.83;100.00;96027.94;4993145;28;24432;-75
2023/08/15 10:06:52;;;;;;;7.85;2.92;;;;;;;24.86;100.00;96035.53;4993235;28;24781;-75
2023/08/15 10:09:19;;;;;;;5.72;2.78;;;;;;;24.78;100.00;96029.50;4992604;28;24493;-76
2023/08/15 10:11:46;;;;;;;4.90;2.72;;;;;;;24.75;100.00;96041.25;4992831;28;24417;-76
2023/08/15 10:14:17;;;;;;;5.68;2.83;;;;;;;24.74;100.00;96038.81;4992977;28;24424;-75
2023/08/15 10:16:44;;;;;;;6.30;2.95;;;;;;;24.79;100.00;96044.38;4992587;28;24411;-75
2023/08/15 10:19:16;;;;;;;7.57;2.80;;;;;;;24.89;100.00;96033.53;4992524;28;24436;-76
2023/08/15 10:21:50;;;;;;;5.38;2.60;;;;;;;25.08;100.00;96036.50;4992604;28;24436;-75
2023/08/15 10:24:17;;;;;;;5.50;2.78;;;;;;;25.33;100.00;96044.25;4992784;28;24433;-75
2023/08/15 10:26:44;;;;;;;8.23;2.75;;;;;;;25.45;100.00;96052.59;4992387;28;24956;-75
2023/08/15 10:29:11;;;;;;;7.65;2.50;;;;;;;25.57;100.00;96053.78;4992257;28;24984;-75
2023/08/15 10:31:39;;;;;;;4.03;2.10;;;;;;;25.66;100.00;96054.50;4992004;28;24432;-75
2023/08/15 10:34:09;;;;;;;5.40;2.47;;;;;;;25.89;100.00;96052.59;4991932;28;24940;-75
2023/08/15 10:36:36;;;;;;;4.13;2.10;;;;;;;26.38;98.76;96049.28;4992125;28;24425;-75
2023/08/15 10:39:06;;;;;;;3.72;2.38;;;;;;;26.59;97.56;96064.47;4991807;28;24975;-75
2023/08/15 10:41:34;;;;;;;3.70;2.00;;;;;;;26.50;75.87;96057.63;4992082;28;24424;-76
2023/08/15 10:44:04;;;;;;;8.87;2.70;;;;;;;26.42;74.93;96047.09;4992570;28;24425;-76
2023/08/15 10:46:32;;;;;;;4.70;2.20;;;;;;;26.34;74.41;96049.88;4991957;28;24433;-75
2023/08/15 10:49:07;;;;;;;4.40;2.40;;;;;;;26.31;71.60;96048.41;4991246;28;24443;-76
2023/08/15 10:51:34;;;;;;;3.60;2.10;;;;;;;26.26;73.40;96045.50;4991973;28;24423;-75
2023/08/15 10:54:03;;;;;;;5.15;2.17;;;;;;;26.36;72.18;96053.13;4992252;28;24429;-76
2023/08/15 10:56:31;;;;;;;4.18;2.03;;;;;;;26.40;69.29;96043.78;4992347;28;24432;-76
2023/08/15 10:58:59;;;;;;;2.83;2.00;;;;;;;26.98;67.35;96055.22;4991962;28;24412;-75
2023/08/15 11:01:27;;;;;;;5.63;2.10;;;;;;;26.97;64.82;96053.56;4991848;28;24429;-76
2023/08/15 11:03:55;;;;;;;3.10;2.00;;;;;;;27.04;63.32;96054.47;4992067;28;24425;-75
2023/08/15 11:06:24;;;;;;;3.60;2.00;;;;;;;27.21;61.07;96057.66;4991981;28;24429;-75
2023/08/15 11:08:52;;;;;;;4.60;1.98;;;;;;;27.41;58.27;96041.88;4991728;28;24449;-75
2023/08/15 11:11:19;;;;;;;5.78;2.03;;;;;;;27.53;58.42;96042.16;4991409;28;24429;-76
2023/08/15 11:13:47;;;;;;;3.75;2.03;;;;;;;27.61;58.64;96045.47;4991627;28;25007;-76
2023/08/15 11:16:15;;;;;;;5.47;2.53;;;;;;;27.67;59.02;96044.69;4991678;28;24971;-76
2023/08/15 11:18:42;;;;;;;4.88;2.13;;;;;;;27.60;56.74;96043.84;4991825;28;24416;-76
2023/08/15 11:21:11;;;;;;;3.15;2.10;;;;;;;27.74;56.40;96047.41;4991301;28;24416;-76
2023/08/15 11:23:40;;;;;;;4.18;2.00;;;;;;;27.61;55.53;96048.13;4991264;28;24425;-76